Latest Weather Observations for Strahan

IDT60801

Issued at 10:01 am EST Friday 29 May 2015 (issued every 30 minutes, with the page automatically refreshed every 10 minutes)

About weather observations | Map of weather stations | Latest weather observations for TAS | Other Formats
Station Details ID: 097072 Name: STRAHAN AERODROME Lat: -42.16 Lon: 145.29 Height: 21.0 m
Data from the previous 72 hours. | See also: Recent months at Strahan
Date/Time
EST
Temp
°C
App
Temp
°C
Dew
Point
Rel
Hum
%
Delta-T
°C
Wind Press
QNH
hPa
Press
MSL
hPa
Rain
since 9 am
mm
Dir
 
Spd
km/h
Gust
km/h
Spd
kts
Gust
kts
29/10:00am 9.3 2.3 6.2 81 1.4 WNW 32 46 17 25 1014.2 1014.3 0.4
29/09:45am 10.0 2.4 4.0 66 2.6 WNW 33 56 18 30 1014.1 1014.2 0.0
29/09:30am 10.6 3.0 3.9 63 3.0 NW 33 48 18 26 1013.9 1014.0 0.0
29/09:00am 10.0 2.5 4.2 67 2.6 NW 33 48 18 26 1014.2 1014.3 15.8
29/08:50am 10.2 2.1 3.5 63 2.9 WNW 35 54 19 29 1014.1 1014.2 15.8
29/08:30am 9.9 2.5 4.1 67 2.6 WNW 32 43 17 23 1013.9 1014.0 15.8
29/08:00am 9.5 2.1 3.9 68 2.5 WNW 32 41 17 22 1013.6 1013.7 15.8
29/07:30am 9.2 1.1 3.4 67 2.5 WNW 35 50 19 27 1012.9 1013.0 15.8
29/07:19am 9.2 2.2 4.2 71 2.2 WNW 30 48 16 26 1012.6 1012.7 15.8
29/07:01am 7.8 2.1 4.9 82 1.3 WNW 24 43 13 23 1012.5 1012.6 15.8
29/07:00am 7.8 2.6 5.3 84 1.1 WNW 22 37 12 20 1012.5 1012.6 15.8
29/06:44am 7.6 -1.0 4.6 81 1.3 WNW 39 57 21 31 1012.6 1012.7 15.8
29/06:42am 7.5 -1.2 3.9 78 1.5 W 39 57 21 31 1012.7 1012.8 15.6
29/06:39am 8.0 -0.3 4.0 76 1.7 W 37 57 20 31 1012.5 1012.6 15.6
29/06:30am 8.4 -0.7 4.2 75 1.8 W 41 54 22 29 1012.2 1012.3 15.4
29/06:00am 9.1 1.9 2.9 65 2.6 WNW 30 41 16 22 1011.6 1011.7 15.4
29/05:40am 8.7 2.1 4.1 73 2.0 W 28 54 15 29 1011.5 1011.6 15.4
29/05:30am 8.2 2.0 4.2 76 1.7 W 26 35 14 19 1011.5 1011.6 15.4
29/05:24am 8.2 0.7 4.2 76 1.7 WSW 33 52 18 28 1011.4 1011.5 15.4
29/05:15am 8.5 0.1 3.9 73 2.0 WNW 37 59 20 32 1011.3 1011.4 15.4
29/05:12am 9.0 1.3 3.6 69 2.3 WNW 33 59 18 32 1011.1 1011.2 15.4
29/05:00am 8.7 2.1 4.1 73 2.0 WNW 28 39 15 21 1011.1 1011.2 15.4
29/04:30am 7.8 1.3 4.7 81 1.4 WNW 28 37 15 20 1010.9 1011.0 15.4
29/04:04am 7.3 0.8 4.6 83 1.2 WNW 28 46 15 25 1010.7 1010.8 14.8
29/04:01am 6.9 1.1 4.6 85 1.0 W 24 46 13 25 1010.8 1010.9 14.8
29/04:00am 6.7 1.3 4.4 85 1.0 W 22 46 12 25 1010.8 1010.9 14.8
29/03:42am 5.5 -2.2 2.5 81 1.2 W 32 61 17 33 1011.1 1011.2 14.2
29/03:41am 6.1 -0.7 2.9 80 1.3 W 28 61 15 33 1011.2 1011.3 13.8
29/03:40am 6.9 0.6 3.7 80 1.4 W 26 56 14 30 1011.1 1011.2 13.4
29/03:30am 7.5 2.1 4.6 82 1.3 W 22 32 12 17 1010.4 1010.5 12.8
29/03:10am 6.8 -1.2 3.8 81 1.3 WSW 35 54 19 29 1010.7 1010.8 12.8
29/03:00am 7.7 0.3 5.2 84 1.1 WSW 33 46 18 25 1010.0 1010.1 12.8
29/02:53am 7.8 -0.7 5.1 83 1.2 W 39 56 21 30 1009.9 1010.0 12.8
29/02:30am 9.5 -0.2 4.1 69 2.4 WNW 44 70 24 38 1009.6 1009.7 12.8
29/02:03am 8.8 0.3 5.2 78 1.6 NW 39 59 21 32 1009.2 1009.3 12.6
29/02:02am 8.6 0.1 5.2 79 1.5 NW 39 59 21 32 1009.2 1009.3 12.6
29/02:00am 8.5 0.8 5.3 80 1.4 NW 35 48 19 26 1009.2 1009.3 12.6
29/01:50am 7.3 -1.4 4.3 81 1.3 WNW 39 57 21 31 1009.3 1009.4 12.6
29/01:47am 7.2 -1.9 3.8 79 1.5 W 41 57 22 31 1009.3 1009.4 12.6
29/01:38am 8.5 -2.1 2.9 68 2.4 WNW 48 70 26 38 1009.0 1009.1 12.2
29/01:30am 8.7 -0.7 4.5 75 1.9 NW 43 65 23 35 1008.7 1008.8 12.2
29/01:00am 9.6 0.5 4.2 69 2.4 WNW 41 59 22 32 1008.8 1008.9 12.2
29/12:30am 8.4 -0.2 4.8 78 1.6 NW 39 63 21 34 1008.5 1008.6 12.2
29/12:24am 9.1 0.2 5.3 77 1.7 NW 41 63 22 34 1008.5 1008.6 12.2
29/12:00am 9.3 0.0 4.9 74 2.0 NW 43 59 23 32 1008.3 1008.4 12.2
 
Date/Time
EST
Temp
°C
App
Temp
°C
Dew
Point
Rel
Hum
%
Delta-T
°C
Wind Press
QNH
hPa
Press
MSL
hPa
Rain
since 9 am
mm
Dir
 
Spd
km/h
Gust
km/h
Spd
kts
Gust
kts
28/11:53pm 9.1 0.4 5.8 80 1.5 NW 41 59 22 32 1008.2 1008.3 12.0
28/11:40pm 8.1 -1.7 5.4 83 1.2 WNW 46 72 25 39 1008.2 1008.3 12.0
28/11:33pm 7.7 -3.0 4.7 81 1.3 WNW 50 72 27 39 1008.3 1008.4 11.8
28/11:31pm 8.3 -1.2 5.1 80 1.4 WNW 44 72 24 39 1008.2 1008.3 11.6
28/11:30pm 8.4 -0.9 5.2 80 1.4 WNW 43 59 23 32 1008.2 1008.3 11.6
28/11:15pm 9.4 1.2 6.5 82 1.3 WNW 39 67 21 36 1008.1 1008.2 11.4
28/11:06pm 9.4 1.0 5.8 78 1.6 NW 39 57 21 31 1008.0 1008.1 11.2
28/11:00pm 9.9 0.7 5.5 74 2.0 NW 43 57 23 31 1007.8 1007.9 11.2
28/10:34pm 9.7 0.9 5.5 75 1.9 NW 41 59 22 32 1008.0 1008.1 11.2
28/10:30pm 9.8 1.1 5.8 76 1.8 NW 41 57 22 31 1008.1 1008.2 11.2
28/10:20pm 9.9 1.1 5.7 75 1.9 NW 41 59 22 32 1008.3 1008.4 11.2
28/10:08pm 9.2 0.8 5.8 79 1.6 NW 39 54 21 29 1008.4 1008.5 11.2
28/10:00pm 8.4 -0.8 5.5 82 1.3 NW 43 69 23 37 1008.5 1008.6 11.2
28/09:55pm 8.4 -1.0 5.3 81 1.4 NW 44 69 24 37 1008.4 1008.5 11.2
28/09:51pm 9.3 0.1 5.5 77 1.7 NW 43 61 23 33 1008.4 1008.5 11.0
28/09:30pm 9.4 0.1 5.2 75 1.9 NW 43 56 23 30 1008.0 1008.1 11.0
28/09:13pm 9.1 1.6 6.4 83 1.2 NW 35 56 19 30 1007.8 1007.9 11.0
28/09:00pm 8.9 0.7 6.7 86 1.0 WNW 39 59 21 32 1008.0 1008.1 10.8
28/08:54pm 8.5 -0.3 5.4 81 1.4 NW 41 59 22 32 1008.3 1008.4 10.6
28/08:39pm 10.4 2.8 5.8 73 2.1 NW 35 56 19 30 1007.7 1007.8 10.4
28/08:30pm 10.1 2.1 5.9 75 1.9 NW 37 54 20 29 1007.6 1007.6 10.4
28/08:00pm 10.3 1.4 5.3 71 2.3 NW 41 59 22 32 1007.6 1007.6 10.4
28/07:30pm 9.5 2.0 6.2 80 1.5 NW 35 57 19 31 1007.5 1007.5 10.2
28/07:27pm 9.3 2.5 7.1 86 1.0 NW 32 50 17 27 1007.4 1007.4 10.2
28/07:20pm 9.5 3.3 7.8 89 0.8 NW 30 41 16 22 1007.4 1007.4 10.2
28/07:01pm 9.2 0.1 6.6 84 1.2 WNW 44 69 24 37 1007.4 1007.4 10.2
28/07:00pm 9.4 0.5 6.7 83 1.3 WNW 43 69 23 37 1007.4 1007.4 10.0
28/06:55pm 10.3 3.0 7.2 81 1.5 WNW 35 56 19 30 1007.2 1007.2 10.0
28/06:38pm 9.7 3.5 7.8 88 0.9 WNW 30 41 16 22 1007.1 1007.1 9.6
28/06:30pm 9.2 3.3 7.5 89 0.8 WNW 28 44 15 24 1007.2 1007.2 9.6
28/06:18pm 9.9 3.4 8.0 88 0.9 WNW 32 59 17 32 1007.3 1007.3 9.4
28/06:16pm 10.3 4.2 8.4 88 0.9 NW 30 50 16 27 1007.1 1007.1 8.8
28/06:09pm 10.0 3.9 8.3 89 0.8 NW 30 44 16 24 1006.9 1006.9 8.6
28/06:00pm 9.7 2.5 7.8 88 0.9 WNW 35 46 19 25 1006.9 1006.9 8.6
28/05:52pm 9.6 1.2 7.2 85 1.1 WNW 41 59 22 32 1006.8 1006.8 8.4
28/05:51pm 9.7 0.9 7.1 84 1.2 WNW 43 59 23 32 1006.8 1006.8 8.4
28/05:41pm 11.3 4.5 7.6 78 1.8 NW 33 52 18 28 1006.6 1006.6 8.2
28/05:30pm 11.1 4.2 7.4 78 1.8 NW 33 46 18 25 1006.5 1006.5 8.2
28/05:19pm 10.8 3.8 6.9 77 1.8 NW 33 52 18 28 1006.6 1006.6 8.2
28/05:00pm 10.5 3.3 7.6 82 1.4 NW 35 48 19 26 1006.5 1006.5 8.0
28/04:30pm 10.2 3.5 8.0 86 1.1 NW 33 46 18 25 1006.4 1006.4 8.0
28/04:00pm 10.6 4.0 8.4 86 1.1 NW 33 43 18 23 1006.6 1006.6 7.8
28/03:30pm 10.3 3.1 9.2 93 0.5 WNW 37 56 20 30 1006.3 1006.3 7.8
28/03:22pm 10.2 3.4 9.3 94 0.4 WNW 35 56 19 30 1006.3 1006.3 7.8
28/03:00pm 9.9 4.1 9.3 96 0.3 WNW 30 44 16 24 1006.1 1006.1 6.8
28/02:30pm 10.4 5.1 9.8 96 0.3 WNW 28 43 15 23 1005.8 1005.8 6.2
28/02:00pm 10.6 3.2 9.7 94 0.5 WNW 39 57 21 31 1005.9 1005.9 4.8
28/01:54pm 11.3 3.2 10.2 93 0.6 NW 43 65 23 35 1005.9 1005.9 4.0
28/01:49pm 12.0 5.1 10.2 89 0.9 NNW 37 65 20 35 1005.5 1005.5 2.2
28/01:40pm 12.8 6.5 10.9 88 1.0 NNW 35 48 19 26 1005.0 1005.0 1.0
28/01:30pm 13.3 7.0 11.0 86 1.2 NNW 35 50 19 27 1005.2 1005.2 1.0
28/01:00pm 12.9 7.2 11.1 89 0.9 N 32 44 17 24 1006.0 1006.0 1.0
28/12:30pm 13.2 8.5 11.9 92 0.7 N 28 41 15 22 1006.3 1006.3 1.0
28/12:13pm 12.9 8.6 12.0 94 0.5 N 26 37 14 20 1006.5 1006.5 1.0
28/12:03pm 12.6 7.4 11.7 94 0.5 N 30 48 16 26 1006.6 1006.6 1.0
28/12:00pm 12.4 6.5 11.3 93 0.6 N 33 48 18 26 1006.7 1006.7 1.0
28/11:48am 12.7 7.4 11.4 92 0.7 NNW 30 44 16 24 1006.9 1006.9 0.4
28/11:41am 12.7 8.2 11.4 92 0.7 NNW 26 35 14 19 1006.9 1006.9 0.2
28/11:33am 12.5 6.8 11.1 91 0.7 NNW 32 50 17 27 1007.1 1007.1 0.2
28/11:30am 12.4 6.4 10.8 90 0.8 NNW 33 50 18 27 1007.3 1007.3 0.2
28/11:24am 12.7 6.9 10.8 88 1.0 NNW 32 50 17 27 1007.3 1007.3 0.2
28/11:22am 13.0 7.6 10.9 87 1.1 NNW 30 44 16 24 1007.4 1007.4 0.2
28/11:00am 13.9 8.1 10.7 81 1.7 NNW 32 43 17 23 1007.8 1007.9 0.0
28/10:30am 13.7 8.8 11.4 86 1.2 NNW 28 41 15 22 1008.1 1008.2 0.0
28/10:00am 13.6 7.7 10.6 82 1.6 N 32 43 17 23 1008.3 1008.4 0.0
28/09:44am 13.6 8.1 10.4 81 1.7 N 30 50 16 27 1008.6 1008.7 0.0
28/09:30am 12.7 7.8 9.9 83 1.4 N 26 37 14 20 1008.8 1008.9 0.0
28/09:00am 12.3 8.1 9.9 85 1.2 N 22 32 12 17 1008.8 1008.9 3.8
28/08:30am 11.5 6.8 9.4 87 1.1 N 24 33 13 18 1009.2 1009.3 3.6
28/08:00am 11.3 6.3 9.4 88 1.0 N 26 39 14 21 1009.4 1009.5 3.6
28/07:30am 11.3 6.5 9.0 86 1.1 N 24 35 13 19 1009.3 1009.4 3.6
28/07:00am 11.7 7.2 8.6 81 1.5 N 22 32 12 17 1009.6 1009.7 3.4
28/06:30am 11.3 6.7 8.3 82 1.5 N 22 33 12 18 1009.6 1009.7 3.4
28/06:00am 11.3 7.1 8.3 82 1.5 N 20 32 11 17 1009.5 1009.6 3.4
28/05:30am 11.4 6.8 8.3 81 1.5 N 22 30 12 16 1009.6 1009.7 3.4
28/05:00am 11.6 6.3 8.3 80 1.6 N 26 33 14 18 1009.7 1009.8 3.4
28/04:30am 11.5 6.1 8.0 79 1.7 N 26 37 14 20 1009.8 1009.9 3.4
28/04:00am 11.3 6.3 8.2 81 1.5 N 24 35 13 19 1009.8 1009.9 3.4
28/03:30am 11.0 7.0 8.4 84 1.3 N 19 28 10 15 1010.2 1010.3 3.4
28/03:00am 11.4 7.4 8.3 81 1.5 N 19 30 10 16 1010.6 1010.7 3.4
28/02:30am 11.9 5.9 8.7 81 1.6 N 30 41 16 22 1011.1 1011.2 3.4
28/02:00am 11.9 6.7 8.9 82 1.5 N 26 37 14 20 1011.3 1011.4 3.4
28/01:30am 12.0 7.5 10.1 88 1.0 N 24 33 13 18 1011.4 1011.5 3.4
28/01:00am 12.0 8.3 10.2 89 0.9 N 20 32 11 17 1011.4 1011.5 3.4
28/12:30am 12.1 8.7 10.5 90 0.8 N 19 26 10 14 1011.9 1012.0 3.4
28/12:00am 12.5 8.2 10.6 88 1.0 NNW 24 33 13 18 1012.2 1012.3 3.4
 
Date/Time
EST
Temp
°C
App
Temp
°C
Dew
Point
Rel
Hum
%
Delta-T
°C
Wind Press
QNH
hPa
Press
MSL
hPa
Rain
since 9 am
mm
Dir
 
Spd
km/h
Gust
km/h
Spd
kts
Gust
kts
27/11:30pm 12.3 8.2 10.2 87 1.1 NNW 22 30 12 16 1012.5 1012.6 3.4
27/11:00pm 11.9 8.7 9.8 87 1.1 N 17 26 9 14 1012.6 1012.7 3.4
27/10:30pm 11.6 8.2 9.3 86 1.2 N 17 24 9 13 1012.8 1012.9 3.4
27/10:00pm 12.0 7.4 9.6 85 1.2 N 24 33 13 18 1013.0 1013.1 3.4
27/09:30pm 11.9 7.7 9.8 87 1.1 N 22 32 12 17 1012.9 1013.0 3.4
27/09:00pm 12.2 7.8 10.4 89 0.9 N 24 33 13 18 1012.9 1013.0 3.4
27/08:30pm 12.3 7.6 10.5 89 0.9 NNW 26 37 14 20 1012.6 1012.7 3.4
27/08:00pm 12.5 7.8 11.9 96 0.3 NNW 28 43 15 23 1012.6 1012.7 3.4
27/07:51pm 12.0 7.4 11.1 94 0.5 NNW 26 33 14 18 1012.4 1012.5 3.4
27/07:30pm 13.1 8.3 11.5 90 0.8 N 28 39 15 21 1012.2 1012.3 2.4
27/07:29pm 13.1 8.3 11.5 90 0.8 N 28 39 15 21 1012.1 1012.2 1.6
27/07:00pm 13.9 8.4 10.7 81 1.7 N 30 44 16 24 1011.6 1011.7 0.2
27/06:30pm 14.1 9.2 10.1 77 2.1 N 26 39 14 21 1011.4 1011.5 0.2
27/06:00pm 14.0 9.5 10.2 78 2.0 N 24 35 13 19 1011.5 1011.6 0.2
27/05:30pm 14.2 10.2 10.4 78 2.0 N 22 30 12 16 1011.8 1011.9 0.2
27/05:00pm 14.1 9.7 10.3 78 2.0 N 24 37 13 20 1011.7 1011.8 0.2
27/04:30pm 14.3 9.9 10.5 78 2.0 N 24 35 13 19 1012.0 1012.1 0.2
27/04:00pm 14.5 10.5 10.5 77 2.1 N 22 32 12 17 1012.1 1012.2 0.2
27/03:30pm 14.8 10.5 10.6 76 2.2 N 24 35 13 19 1012.3 1012.4 0.2
27/03:00pm 14.9 10.6 10.7 76 2.2 N 24 37 13 20 1012.5 1012.6 0.2
27/02:30pm 15.2 11.9 11.0 76 2.2 N 19 30 10 16 1012.4 1012.5 0.2
27/02:00pm 15.2 11.0 11.0 76 2.2 N 24 33 13 18 1012.8 1012.9 0.2
27/01:30pm 14.8 11.4 11.4 80 1.8 N 20 35 11 19 1013.3 1013.4 0.2
27/01:00pm 14.4 10.7 11.4 82 1.6 N 22 35 12 19 1013.8 1013.9 0.2
27/12:30pm 14.7 10.8 10.9 78 2.0 N 22 30 12 16 1013.9 1014.0 0.2
27/12:00pm 14.3 10.9 11.3 82 1.6 N 20 30 11 16 1014.6 1014.7 0.2
27/11:30am 13.8 9.0 10.4 80 1.8 N 26 39 14 21 1015.0 1015.1 0.0
27/11:00am 13.8 10.2 10.0 78 2.0 N 19 26 10 14 1015.1 1015.2 0.0
27/10:30am 13.9 9.7 9.9 77 2.1 NNE 22 33 12 18 1015.1 1015.2 0.0
27/10:00am 13.7 9.5 9.7 77 2.1 N 22 35 12 19 1015.1 1015.2 0.0
27/09:30am 13.2 9.0 9.8 80 1.7 NNE 22 37 12 20 1015.3 1015.4 0.0
27/09:00am 12.7 8.8 9.5 81 1.6 NNE 20 33 11 18 1015.7 1015.7 0.2
27/08:30am 12.6 8.3 9.4 81 1.6 NNE 22 37 12 20 1016.0 1016.0 0.2
27/08:00am 12.0 8.7 9.4 84 1.3 N 17 30 9 16 1016.2 1016.2 0.2
27/07:30am 11.7 7.9 8.9 83 1.4 NNE 19 28 10 15 1016.2 1016.2 0.2
27/07:00am 12.0 8.0 8.3 78 1.8 NNE 19 33 10 18 1016.2 1016.2 0.2
27/06:30am 11.5 7.2 7.8 78 1.8 NNE 20 33 11 18 1016.2 1016.2 0.2
27/06:00am 10.8 7.4 7.5 80 1.6 NNE 15 20 8 11 1016.4 1016.4 0.2
27/05:30am 10.7 6.9 7.6 81 1.5 NNE 17 32 9 17 1016.8 1016.8 0.2
27/05:00am 10.3 7.4 8.2 87 1.0 NNE 13 20 7 11 1017.3 1017.3 0.2
27/04:30am 10.0 6.8 8.6 91 0.7 N 15 26 8 14 1017.8 1017.8 0.2
27/04:00am 9.3 7.1 9.2 99 0.0 N 11 17 6 9 1018.2 1018.2 0.2
27/03:30am 8.2 6.4 8.1 99 0.0 NNE 7 9 4 5 1018.8 1018.8 0.2
27/03:00am 7.9 6.1 7.8 99 0.0 NE 7 9 4 5 1019.4 1019.4 0.2
27/02:30am 7.6 4.6 7.5 99 0.0 NE 13 15 7 8 1020.0 1020.0 0.2
27/02:00am 7.5 4.8 7.4 99 0.0 NE 11 15 6 8 1020.4 1020.4 0.2
27/01:30am 7.4 4.3 7.3 99 0.0 N 13 15 7 8 1020.7 1020.7 0.2
27/01:00am 7.8 5.6 7.7 99 0.0 NNE 9 13 5 7 1020.9 1020.9 0.2
27/12:30am 8.1 5.2 8.0 99 0.0 NNE 13 17 7 9 1021.2 1021.2 0.2
27/12:00am 8.1 5.6 8.0 99 0.0 NNE 11 15 6 8 1021.7 1021.7 0.0
 
Date/Time
EST
Temp
°C
App
Temp
°C
Dew
Point
Rel
Hum
%
Delta-T
°C
Wind Press
QNH
hPa
Press
MSL
hPa
Rain
since 9 am
mm
Dir
 
Spd
km/h
Gust
km/h
Spd
kts
Gust
kts
26/11:30pm 7.7 5.4 7.6 99 0.0 NNE 9 11 5 6 1022.0 1022.0 0.0
26/11:00pm 7.0 4.6 6.9 99 0.0 NE 9 11 5 6 1022.2 1022.2 0.0
26/10:30pm 8.5 6.8 8.4 99 0.0 NNE 7 9 4 5 1022.5 1022.5 0.0
26/10:00pm 8.9 7.3 8.8 99 0.0 NE 7 9 4 5 1022.7 1022.7 0.0
26/09:30pm 7.8 6.1 7.7 99 0.0 ENE 6 7 3 4 1022.9 1022.9 0.0
26/09:00pm 9.6 7.0 9.5 99 0.0 NE 13 15 7 8 1023.3 1023.3 0.0
26/08:39pm 8.2 7.0 7.9 98 0.1 NNE 4 11 2 6 1023.7 1023.7 0.0
26/08:30pm 8.3 7.8 8.0 98 0.1 CALM 0 0 0 0 1023.7 1023.7 0.0
26/08:03pm 8.2 7.3 7.6 96 0.3 NE 2 6 1 3 1023.8 1023.8 0.0
26/08:00pm 8.3 7.0 7.7 96 0.3 ENE 4 7 2 4 1023.8 1023.8 0.0
26/07:30pm 9.3 7.7 8.7 96 0.3 NE 7 9 4 5 1024.0 1024.0 0.0
26/07:00pm 9.9 8.4 9.3 96 0.3 NE 7 9 4 5 1024.2 1024.2 0.0
26/06:30pm 10.0 8.1 9.2 95 0.4 NNE 9 11 5 6 1024.4 1024.4 0.0
26/06:00pm 9.8 8.2 8.7 93 0.5 N 7 9 4 5 1024.4 1024.4 0.0
26/05:30pm 10.8 9.4 9.4 91 0.7 NE 7 9 4 5 1024.5 1024.5 0.0
26/05:00pm 11.6 11.5 9.5 87 1.1 CALM 0 0 0 0 1024.5 1024.5 0.0
26/04:30pm 12.6 12.3 10.0 84 1.3 NW 2 6 1 3 1024.7 1024.7 0.0
26/04:00pm 13.4 12.2 9.6 78 1.9 WNW 6 7 3 4 1024.8 1024.8 0.0
26/03:30pm 14.9 14.8 9.5 70 2.8 CALM 0 6 0 3 1025.0 1025.0 0.0
26/03:00pm 14.9 14.3 10.3 74 2.4 W 4 7 2 4 1025.0 1025.0 0.0
26/02:30pm 14.3 12.5 9.3 72 2.6 W 9 13 5 7 1025.3 1025.3 0.0
26/02:00pm 15.1 13.1 10.3 73 2.5 W 11 17 6 9 1025.4 1025.4 0.0
26/01:30pm 13.9 12.6 11.2 84 1.4 NW 9 15 5 8 1025.7 1025.7 0.0
26/01:00pm 13.6 12.2 10.8 83 1.5 NNW 9 13 5 7 1026.1 1026.1 0.0
26/12:30pm 13.9 12.1 10.7 81 1.7 NNW 11 13 6 7 1026.4 1026.4 0.0
26/12:00pm 13.9 12.2 9.7 76 2.1 NNW 9 11 5 6 1026.6 1026.6 0.0
26/11:30am 14.7 12.7 10.1 74 2.4 NW 11 15 6 8 1027.1 1027.1 0.0
26/11:00am 14.2 13.3 10.6 79 1.9 NNW 6 9 3 5 1027.5 1027.5 0.0
26/10:30am 13.6 12.6 12.2 91 0.8 N 9 11 5 6 1027.6 1027.6 0.0

Other Formats:

Comma delimited format used in spreadsheet applications
http://www.bom.gov.au/fwo/IDT60801/IDT60801.94956.axf

JavaScript Object Notation format (JSON) in row-major order
http://www.bom.gov.au/fwo/IDT60801/IDT60801.94956.json